sensor_id;sensor_type;location;lat;lon;timestamp;P1;durP1;ratioP1;P2;durP2;ratioP2
21480;SDS011;10902;48.158;8.634;2024-01-11T00:02:13;80.78;;;38.38;;
21480;SDS011;10902;48.158;8.634;2024-01-11T00:04:59;77.13;;;39.88;;
21480;SDS011;10902;48.158;8.634;2024-01-11T00:07:45;85.85;;;40.72;;
21480;SDS011;10902;48.158;8.634;2024-01-11T00:10:30;88.45;;;41.67;;
21480;SDS011;10902;48.158;8.634;2024-01-11T00:13:16;81.72;;;40.58;;
21480;SDS011;10902;48.158;8.634;2024-01-11T00:16:01;83.20;;;39.85;;
21480;SDS011;10902;48.158;8.634;2024-01-11T00:18:47;77.55;;;38.25;;
21480;SDS011;10902;48.158;8.634;2024-01-11T00:21:33;68.90;;;36.30;;
21480;SDS011;10902;48.158;8.634;2024-01-11T00:24:18;70.18;;;35.55;;
21480;SDS011;10902;48.158;8.634;2024-01-11T00:27:04;76.90;;;37.28;;
21480;SDS011;10902;48.158;8.634;2024-01-11T00:29:50;82.88;;;38.95;;
21480;SDS011;10902;48.158;8.634;2024-01-11T00:32:35;186.82;;;46.15;;
21480;SDS011;10902;48.158;8.634;2024-01-11T00:35:21;127.70;;;41.97;;
21480;SDS011;10902;48.158;8.634;2024-01-11T00:38:06;86.55;;;38.95;;
21480;SDS011;10902;48.158;8.634;2024-01-11T00:40:52;88.60;;;38.85;;
21480;SDS011;10902;48.158;8.634;2024-01-11T00:43:38;72.78;;;36.38;;
21480;SDS011;10902;48.158;8.634;2024-01-11T00:46:23;72.55;;;36.95;;
21480;SDS011;10902;48.158;8.634;2024-01-11T00:49:09;79.43;;;38.00;;
21480;SDS011;10902;48.158;8.634;2024-01-11T00:51:55;76.20;;;36.38;;
21480;SDS011;10902;48.158;8.634;2024-01-11T00:54:41;73.95;;;36.33;;
21480;SDS011;10902;48.158;8.634;2024-01-11T00:57:26;454.00;;;63.28;;
21480;SDS011;10902;48.158;8.634;2024-01-11T01:00:12;167.02;;;46.13;;
21480;SDS011;10902;48.158;8.634;2024-01-11T01:03:01;261.55;;;52.58;;
21480;SDS011;10902;48.158;8.634;2024-01-11T01:05:46;459.60;;;62.90;;
21480;SDS011;10902;48.158;8.634;2024-01-11T01:08:32;366.27;;;55.22;;
21480;SDS011;10902;48.158;8.634;2024-01-11T01:11:18;184.38;;;46.17;;
21480;SDS011;10902;48.158;8.634;2024-01-11T01:14:03;122.35;;;41.35;;
21480;SDS011;10902;48.158;8.634;2024-01-11T01:16:49;179.20;;;46.25;;
21480;SDS011;10902;48.158;8.634;2024-01-11T01:19:35;112.95;;;42.60;;
21480;SDS011;10902;48.158;8.634;2024-01-11T01:22:21;81.43;;;40.25;;
21480;SDS011;10902;48.158;8.634;2024-01-11T01:25:07;85.47;;;40.83;;
21480;SDS011;10902;48.158;8.634;2024-01-11T01:27:52;89.13;;;41.88;;
21480;SDS011;10902;48.158;8.634;2024-01-11T01:30:38;90.40;;;39.67;;
21480;SDS011;10902;48.158;8.634;2024-01-11T01:33:23;131.85;;;42.30;;
21480;SDS011;10902;48.158;8.634;2024-01-11T01:36:12;142.27;;;40.58;;
21480;SDS011;10902;48.158;8.634;2024-01-11T01:38:58;101.78;;;40.78;;
21480;SDS011;10902;48.158;8.634;2024-01-11T01:41:43;87.82;;;40.33;;
21480;SDS011;10902;48.158;8.634;2024-01-11T01:44:29;85.53;;;39.60;;
21480;SDS011;10902;48.158;8.634;2024-01-11T01:47:15;84.57;;;40.00;;
21480;SDS011;10902;48.158;8.634;2024-01-11T01:50:02;85.07;;;40.00;;
21480;SDS011;10902;48.158;8.634;2024-01-11T01:52:49;75.13;;;37.53;;
21480;SDS011;10902;48.158;8.634;2024-01-11T01:55:36;82.65;;;38.35;;
21480;SDS011;10902;48.158;8.634;2024-01-11T01:58:22;69.55;;;35.13;;
21480;SDS011;10902;48.158;8.634;2024-01-11T02:01:08;71.68;;;36.28;;
21480;SDS011;10902;48.158;8.634;2024-01-11T02:03:53;71.80;;;34.85;;
21480;SDS011;10902;48.158;8.634;2024-01-11T02:06:39;79.55;;;39.88;;
21480;SDS011;10902;48.158;8.634;2024-01-11T02:09:26;73.03;;;37.80;;
21480;SDS011;10902;48.158;8.634;2024-01-11T02:12:13;78.45;;;37.58;;
21480;SDS011;10902;48.158;8.634;2024-01-11T02:15:00;74.20;;;36.25;;
21480;SDS011;10902;48.158;8.634;2024-01-11T02:17:48;76.50;;;36.30;;
21480;SDS011;10902;48.158;8.634;2024-01-11T02:20:34;76.13;;;36.95;;
21480;SDS011;10902;48.158;8.634;2024-01-11T02:23:20;79.47;;;35.53;;
21480;SDS011;10902;48.158;8.634;2024-01-11T02:26:09;68.35;;;34.65;;
21480;SDS011;10902;48.158;8.634;2024-01-11T02:28:54;82.65;;;38.75;;
21480;SDS011;10902;48.158;8.634;2024-01-11T02:31:40;83.85;;;39.08;;
21480;SDS011;10902;48.158;8.634;2024-01-11T02:34:26;80.60;;;38.20;;
21480;SDS011;10902;48.158;8.634;2024-01-11T02:37:13;81.32;;;39.50;;
21480;SDS011;10902;48.158;8.634;2024-01-11T02:39:58;122.25;;;40.95;;
21480;SDS011;10902;48.158;8.634;2024-01-11T02:42:44;88.63;;;40.22;;
21480;SDS011;10902;48.158;8.634;2024-01-11T02:45:29;76.55;;;37.40;;
21480;SDS011;10902;48.158;8.634;2024-01-11T02:48:15;136.55;;;42.90;;
21480;SDS011;10902;48.158;8.634;2024-01-11T02:51:00;115.25;;;43.20;;
21480;SDS011;10902;48.158;8.634;2024-01-11T02:53:46;168.27;;;46.55;;
21480;SDS011;10902;48.158;8.634;2024-01-11T02:56:32;174.55;;;43.05;;
21480;SDS011;10902;48.158;8.634;2024-01-11T02:59:17;143.32;;;45.20;;
21480;SDS011;10902;48.158;8.634;2024-01-11T03:02:03;154.60;;;44.50;;
21480;SDS011;10902;48.158;8.634;2024-01-11T03:04:49;98.38;;;39.42;;
21480;SDS011;10902;48.158;8.634;2024-01-11T03:07:34;82.13;;;38.65;;
21480;SDS011;10902;48.158;8.634;2024-01-11T03:10:20;222.07;;;46.70;;
21480;SDS011;10902;48.158;8.634;2024-01-11T03:13:06;117.70;;;39.75;;
21480;SDS011;10902;48.158;8.634;2024-01-11T03:15:52;83.22;;;37.95;;
21480;SDS011;10902;48.158;8.634;2024-01-11T03:18:38;85.70;;;39.65;;
21480;SDS011;10902;48.158;8.634;2024-01-11T03:21:24;84.20;;;36.40;;
21480;SDS011;10902;48.158;8.634;2024-01-11T03:24:09;79.60;;;36.15;;
21480;SDS011;10902;48.158;8.634;2024-01-11T03:26:55;73.25;;;37.10;;
21480;SDS011;10902;48.158;8.634;2024-01-11T03:29:41;77.32;;;36.88;;
21480;SDS011;10902;48.158;8.634;2024-01-11T03:32:26;80.18;;;36.63;;
21480;SDS011;10902;48.158;8.634;2024-01-11T03:35:12;79.25;;;38.35;;
21480;SDS011;10902;48.158;8.634;2024-01-11T03:37:58;85.18;;;38.95;;
21480;SDS011;10902;48.158;8.634;2024-01-11T03:40:43;95.65;;;39.90;;
21480;SDS011;10902;48.158;8.634;2024-01-11T03:43:29;141.05;;;41.70;;
21480;SDS011;10902;48.158;8.634;2024-01-11T03:46:14;348.20;;;51.30;;
21480;SDS011;10902;48.158;8.634;2024-01-11T03:49:00;365.50;;;53.92;;
21480;SDS011;10902;48.158;8.634;2024-01-11T03:51:46;314.48;;;51.63;;
21480;SDS011;10902;48.158;8.634;2024-01-11T03:54:31;363.88;;;51.38;;
21480;SDS011;10902;48.158;8.634;2024-01-11T03:57:17;320.25;;;49.67;;
21480;SDS011;10902;48.158;8.634;2024-01-11T04:00:02;368.90;;;54.42;;
21480;SDS011;10902;48.158;8.634;2024-01-11T04:02:49;365.80;;;54.25;;
21480;SDS011;10902;48.158;8.634;2024-01-11T04:05:35;407.33;;;56.35;;
21480;SDS011;10902;48.158;8.634;2024-01-11T04:08:21;110.72;;;38.90;;
21480;SDS011;10902;48.158;8.634;2024-01-11T04:11:07;243.95;;;45.75;;
21480;SDS011;10902;48.158;8.634;2024-01-11T04:13:52;313.15;;;53.13;;
21480;SDS011;10902;48.158;8.634;2024-01-11T04:16:44;329.35;;;51.25;;
21480;SDS011;10902;48.158;8.634;2024-01-11T04:19:29;323.35;;;54.95;;
21480;SDS011;10902;48.158;8.634;2024-01-11T04:22:15;321.75;;;51.67;;
21480;SDS011;10902;48.158;8.634;2024-01-11T04:25:01;272.75;;;49.47;;
21480;SDS011;10902;48.158;8.634;2024-01-11T04:27:46;88.43;;;38.78;;
21480;SDS011;10902;48.158;8.634;2024-01-11T04:30:32;107.38;;;40.00;;
21480;SDS011;10902;48.158;8.634;2024-01-11T04:33:17;222.68;;;45.53;;
21480;SDS011;10902;48.158;8.634;2024-01-11T04:36:03;223.10;;;47.25;;
21480;SDS011;10902;48.158;8.634;2024-01-11T04:38:49;181.30;;;46.50;;
21480;SDS011;10902;48.158;8.634;2024-01-11T04:41:38;183.45;;;44.95;;
21480;SDS011;10902;48.158;8.634;2024-01-11T04:44:24;121.78;;;40.33;;
21480;SDS011;10902;48.158;8.634;2024-01-11T04:47:09;147.55;;;42.65;;
21480;SDS011;10902;48.158;8.634;2024-01-11T04:49:55;153.10;;;43.40;;
21480;SDS011;10902;48.158;8.634;2024-01-11T04:52:41;85.07;;;38.15;;
21480;SDS011;10902;48.158;8.634;2024-01-11T04:55:26;90.03;;;39.00;;
21480;SDS011;10902;48.158;8.634;2024-01-11T04:58:12;86.05;;;37.58;;
21480;SDS011;10902;48.158;8.634;2024-01-11T05:00:58;83.88;;;36.75;;
21480;SDS011;10902;48.158;8.634;2024-01-11T05:03:44;82.00;;;35.72;;
21480;SDS011;10902;48.158;8.634;2024-01-11T05:06:30;78.72;;;36.28;;
21480;SDS011;10902;48.158;8.634;2024-01-11T05:09:16;83.60;;;37.25;;
21480;SDS011;10902;48.158;8.634;2024-01-11T05:12:01;80.00;;;35.40;;
21480;SDS011;10902;48.158;8.634;2024-01-11T05:14:47;87.43;;;37.72;;
21480;SDS011;10902;48.158;8.634;2024-01-11T05:17:33;76.22;;;37.58;;
21480;SDS011;10902;48.158;8.634;2024-01-11T05:20:18;86.10;;;40.63;;
21480;SDS011;10902;48.158;8.634;2024-01-11T05:23:04;84.38;;;37.53;;
21480;SDS011;10902;48.158;8.634;2024-01-11T05:25:49;83.78;;;37.17;;
21480;SDS011;10902;48.158;8.634;2024-01-11T05:28:35;75.10;;;35.50;;
21480;SDS011;10902;48.158;8.634;2024-01-11T05:31:21;72.57;;;35.15;;
21480;SDS011;10902;48.158;8.634;2024-01-11T05:34:07;68.88;;;34.53;;
21480;SDS011;10902;48.158;8.634;2024-01-11T05:36:53;66.43;;;33.38;;
21480;SDS011;10902;48.158;8.634;2024-01-11T05:39:39;68.50;;;34.47;;
21480;SDS011;10902;48.158;8.634;2024-01-11T05:42:25;71.82;;;34.97;;
21480;SDS011;10902;48.158;8.634;2024-01-11T05:45:10;65.97;;;34.22;;
21480;SDS011;10902;48.158;8.634;2024-01-11T05:47:56;66.88;;;34.58;;
21480;SDS011;10902;48.158;8.634;2024-01-11T05:50:42;65.88;;;32.97;;
21480;SDS011;10902;48.158;8.634;2024-01-11T05:53:28;57.00;;;31.27;;
21480;SDS011;10902;48.158;8.634;2024-01-11T05:56:14;64.97;;;33.35;;
21480;SDS011;10902;48.158;8.634;2024-01-11T05:58:59;63.58;;;31.80;;
21480;SDS011;10902;48.158;8.634;2024-01-11T06:01:45;59.75;;;30.23;;
21480;SDS011;10902;48.158;8.634;2024-01-11T06:04:31;62.65;;;32.15;;
21480;SDS011;10902;48.158;8.634;2024-01-11T06:07:17;65.70;;;33.15;;
21480;SDS011;10902;48.158;8.634;2024-01-11T06:10:03;62.30;;;32.72;;
21480;SDS011;10902;48.158;8.634;2024-01-11T06:12:50;67.47;;;33.15;;
21480;SDS011;10902;48.158;8.634;2024-01-11T06:15:36;69.28;;;33.55;;
21480;SDS011;10902;48.158;8.634;2024-01-11T06:18:21;70.85;;;34.97;;
21480;SDS011;10902;48.158;8.634;2024-01-11T06:21:07;64.03;;;31.98;;
21480;SDS011;10902;48.158;8.634;2024-01-11T06:23:53;68.22;;;32.92;;
21480;SDS011;10902;48.158;8.634;2024-01-11T06:26:38;62.97;;;32.78;;
21480;SDS011;10902;48.158;8.634;2024-01-11T06:29:24;72.85;;;35.45;;
21480;SDS011;10902;48.158;8.634;2024-01-11T06:32:09;70.68;;;34.33;;
21480;SDS011;10902;48.158;8.634;2024-01-11T06:34:55;71.57;;;34.42;;
21480;SDS011;10902;48.158;8.634;2024-01-11T06:37:40;64.93;;;33.53;;
21480;SDS011;10902;48.158;8.634;2024-01-11T06:40:26;70.05;;;35.28;;
21480;SDS011;10902;48.158;8.634;2024-01-11T06:43:12;79.25;;;37.20;;
21480;SDS011;10902;48.158;8.634;2024-01-11T06:46:01;66.88;;;34.53;;
21480;SDS011;10902;48.158;8.634;2024-01-11T06:48:50;72.03;;;35.40;;
21480;SDS011;10902;48.158;8.634;2024-01-11T06:51:36;71.15;;;34.03;;
21480;SDS011;10902;48.158;8.634;2024-01-11T06:54:21;64.57;;;34.35;;
21480;SDS011;10902;48.158;8.634;2024-01-11T06:57:07;63.40;;;33.03;;
21480;SDS011;10902;48.158;8.634;2024-01-11T06:59:52;65.15;;;34.13;;
21480;SDS011;10902;48.158;8.634;2024-01-11T07:02:38;69.70;;;35.72;;
21480;SDS011;10902;48.158;8.634;2024-01-11T07:05:25;63.15;;;34.00;;
21480;SDS011;10902;48.158;8.634;2024-01-11T07:08:10;72.70;;;35.50;;
21480;SDS011;10902;48.158;8.634;2024-01-11T07:10:56;67.78;;;33.63;;
21480;SDS011;10902;48.158;8.634;2024-01-11T07:13:42;64.78;;;30.92;;
21480;SDS011;10902;48.158;8.634;2024-01-11T07:16:28;70.20;;;34.53;;
21480;SDS011;10902;48.158;8.634;2024-01-11T07:19:13;70.63;;;33.47;;
21480;SDS011;10902;48.158;8.634;2024-01-11T07:21:59;75.07;;;35.28;;
21480;SDS011;10902;48.158;8.634;2024-01-11T07:24:44;67.68;;;33.47;;
21480;SDS011;10902;48.158;8.634;2024-01-11T07:27:30;63.58;;;31.92;;
21480;SDS011;10902;48.158;8.634;2024-01-11T07:30:16;65.40;;;31.55;;
21480;SDS011;10902;48.158;8.634;2024-01-11T07:33:05;64.47;;;32.42;;
21480;SDS011;10902;48.158;8.634;2024-01-11T07:35:51;64.10;;;32.30;;
21480;SDS011;10902;48.158;8.634;2024-01-11T07:38:36;70.43;;;34.63;;
21480;SDS011;10902;48.158;8.634;2024-01-11T07:41:22;72.05;;;35.38;;
21480;SDS011;10902;48.158;8.634;2024-01-11T07:44:08;72.43;;;34.15;;
21480;SDS011;10902;48.158;8.634;2024-01-11T07:46:53;79.32;;;38.05;;
21480;SDS011;10902;48.158;8.634;2024-01-11T07:49:39;72.43;;;35.15;;
21480;SDS011;10902;48.158;8.634;2024-01-11T07:52:24;70.85;;;35.00;;
21480;SDS011;10902;48.158;8.634;2024-01-11T07:55:10;73.40;;;35.40;;
21480;SDS011;10902;48.158;8.634;2024-01-11T07:57:57;77.07;;;37.90;;
21480;SDS011;10902;48.158;8.634;2024-01-11T08:00:43;73.97;;;37.83;;
21480;SDS011;10902;48.158;8.634;2024-01-11T08:03:28;80.03;;;40.35;;
21480;SDS011;10902;48.158;8.634;2024-01-11T08:06:14;76.93;;;39.47;;
21480;SDS011;10902;48.158;8.634;2024-01-11T08:09:00;84.53;;;39.97;;
21480;SDS011;10902;48.158;8.634;2024-01-11T08:11:46;78.50;;;39.50;;
21480;SDS011;10902;48.158;8.634;2024-01-11T08:14:31;79.40;;;40.15;;
21480;SDS011;10902;48.158;8.634;2024-01-11T08:17:17;77.45;;;39.08;;
21480;SDS011;10902;48.158;8.634;2024-01-11T08:20:03;81.10;;;39.70;;
21480;SDS011;10902;48.158;8.634;2024-01-11T08:22:49;81.85;;;41.15;;
21480;SDS011;10902;48.158;8.634;2024-01-11T08:25:34;77.00;;;38.67;;
21480;SDS011;10902;48.158;8.634;2024-01-11T08:28:20;84.95;;;40.42;;
21480;SDS011;10902;48.158;8.634;2024-01-11T08:31:06;91.45;;;43.38;;
21480;SDS011;10902;48.158;8.634;2024-01-11T08:33:52;85.35;;;41.53;;
21480;SDS011;10902;48.158;8.634;2024-01-11T08:36:38;86.43;;;42.80;;
21480;SDS011;10902;48.158;8.634;2024-01-11T08:39:24;91.03;;;43.60;;
21480;SDS011;10902;48.158;8.634;2024-01-11T08:42:10;98.53;;;44.85;;
21480;SDS011;10902;48.158;8.634;2024-01-11T08:44:55;94.07;;;44.63;;
21480;SDS011;10902;48.158;8.634;2024-01-11T08:47:41;99.13;;;47.38;;
21480;SDS011;10902;48.158;8.634;2024-01-11T08:50:26;96.88;;;45.50;;
21480;SDS011;10902;48.158;8.634;2024-01-11T08:53:12;91.20;;;45.25;;
21480;SDS011;10902;48.158;8.634;2024-01-11T08:55:58;97.63;;;46.33;;
21480;SDS011;10902;48.158;8.634;2024-01-11T08:58:43;92.07;;;43.67;;
21480;SDS011;10902;48.158;8.634;2024-01-11T09:01:29;86.63;;;42.67;;
21480;SDS011;10902;48.158;8.634;2024-01-11T09:04:14;86.72;;;43.00;;
21480;SDS011;10902;48.158;8.634;2024-01-11T09:07:00;87.65;;;42.72;;
21480;SDS011;10902;48.158;8.634;2024-01-11T09:09:46;87.72;;;41.58;;
21480;SDS011;10902;48.158;8.634;2024-01-11T09:12:31;80.28;;;38.97;;
21480;SDS011;10902;48.158;8.634;2024-01-11T09:15:17;79.45;;;39.35;;
21480;SDS011;10902;48.158;8.634;2024-01-11T09:18:03;80.93;;;40.08;;
21480;SDS011;10902;48.158;8.634;2024-01-11T09:20:48;85.00;;;40.70;;
21480;SDS011;10902;48.158;8.634;2024-01-11T09:23:34;90.05;;;41.25;;
21480;SDS011;10902;48.158;8.634;2024-01-11T09:26:20;87.60;;;40.90;;
21480;SDS011;10902;48.158;8.634;2024-01-11T09:29:08;86.03;;;40.95;;
21480;SDS011;10902;48.158;8.634;2024-01-11T09:31:54;79.07;;;38.63;;
21480;SDS011;10902;48.158;8.634;2024-01-11T09:34:39;90.25;;;42.03;;
21480;SDS011;10902;48.158;8.634;2024-01-11T09:37:25;90.10;;;41.40;;
21480;SDS011;10902;48.158;8.634;2024-01-11T09:40:11;87.38;;;41.67;;
21480;SDS011;10902;48.158;8.634;2024-01-11T09:42:57;94.72;;;43.38;;
21480;SDS011;10902;48.158;8.634;2024-01-11T09:45:43;83.90;;;40.05;;
21480;SDS011;10902;48.158;8.634;2024-01-11T09:48:29;89.40;;;42.70;;
21480;SDS011;10902;48.158;8.634;2024-01-11T09:51:16;86.93;;;42.70;;
21480;SDS011;10902;48.158;8.634;2024-01-11T09:54:01;99.38;;;45.10;;
21480;SDS011;10902;48.158;8.634;2024-01-11T09:56:49;87.65;;;40.83;;
21480;SDS011;10902;48.158;8.634;2024-01-11T09:59:36;99.40;;;44.97;;
21480;SDS011;10902;48.158;8.634;2024-01-11T10:02:24;103.07;;;46.20;;
21480;SDS011;10902;48.158;8.634;2024-01-11T10:05:13;94.07;;;46.65;;
21480;SDS011;10902;48.158;8.634;2024-01-11T10:08:00;89.55;;;45.08;;
21480;SDS011;10902;48.158;8.634;2024-01-11T10:10:46;90.18;;;42.90;;
21480;SDS011;10902;48.158;8.634;2024-01-11T10:13:31;87.22;;;42.10;;
21480;SDS011;10902;48.158;8.634;2024-01-11T10:16:18;86.60;;;40.80;;
21480;SDS011;10902;48.158;8.634;2024-01-11T10:19:03;95.43;;;44.80;;
21480;SDS011;10902;48.158;8.634;2024-01-11T10:21:49;93.90;;;43.75;;
21480;SDS011;10902;48.158;8.634;2024-01-11T10:24:35;87.40;;;42.25;;
21480;SDS011;10902;48.158;8.634;2024-01-11T10:27:24;84.75;;;40.72;;
21480;SDS011;10902;48.158;8.634;2024-01-11T10:30:12;92.78;;;44.90;;
21480;SDS011;10902;48.158;8.634;2024-01-11T10:33:01;79.32;;;37.75;;
21480;SDS011;10902;48.158;8.634;2024-01-11T10:35:46;82.75;;;40.70;;
21480;SDS011;10902;48.158;8.634;2024-01-11T10:38:36;85.70;;;40.85;;
21480;SDS011;10902;48.158;8.634;2024-01-11T10:41:23;81.03;;;39.65;;
21480;SDS011;10902;48.158;8.634;2024-01-11T10:44:28;78.55;;;38.95;;
21480;SDS011;10902;48.158;8.634;2024-01-11T10:47:19;81.93;;;38.72;;
21480;SDS011;10902;48.158;8.634;2024-01-11T10:50:07;83.05;;;39.67;;
21480;SDS011;10902;48.158;8.634;2024-01-11T10:52:59;81.53;;;39.90;;
21480;SDS011;10902;48.158;8.634;2024-01-11T10:55:48;76.82;;;39.20;;
21480;SDS011;10902;48.158;8.634;2024-01-11T10:58:35;78.55;;;39.53;;
21480;SDS011;10902;48.158;8.634;2024-01-11T11:01:20;79.57;;;39.47;;
21480;SDS011;10902;48.158;8.634;2024-01-11T11:04:09;87.20;;;42.00;;
21480;SDS011;10902;48.158;8.634;2024-01-11T11:06:55;79.30;;;42.10;;
21480;SDS011;10902;48.158;8.634;2024-01-11T11:09:44;89.80;;;42.22;;
21480;SDS011;10902;48.158;8.634;2024-01-11T11:12:32;76.82;;;42.40;;
21480;SDS011;10902;48.158;8.634;2024-01-11T11:15:19;83.85;;;44.13;;
21480;SDS011;10902;48.158;8.634;2024-01-11T11:18:06;75.80;;;40.05;;
21480;SDS011;10902;48.158;8.634;2024-01-11T11:20:52;70.22;;;37.60;;
21480;SDS011;10902;48.158;8.634;2024-01-11T11:23:39;71.10;;;37.88;;
21480;SDS011;10902;48.158;8.634;2024-01-11T11:26:25;67.63;;;37.60;;
21480;SDS011;10902;48.158;8.634;2024-01-11T11:29:14;68.68;;;36.90;;
21480;SDS011;10902;48.158;8.634;2024-01-11T11:32:00;70.38;;;38.00;;
21480;SDS011;10902;48.158;8.634;2024-01-11T11:34:48;71.78;;;37.45;;
21480;SDS011;10902;48.158;8.634;2024-01-11T11:37:37;74.25;;;38.92;;
21480;SDS011;10902;48.158;8.634;2024-01-11T11:40:33;68.10;;;34.83;;
21480;SDS011;10902;48.158;8.634;2024-01-11T11:43:24;69.82;;;37.85;;
21480;SDS011;10902;48.158;8.634;2024-01-11T11:46:12;72.15;;;35.53;;
21480;SDS011;10902;48.158;8.634;2024-01-11T11:48:57;67.22;;;36.22;;
21480;SDS011;10902;48.158;8.634;2024-01-11T11:51:44;69.95;;;36.50;;
21480;SDS011;10902;48.158;8.634;2024-01-11T11:54:30;67.25;;;34.63;;
21480;SDS011;10902;48.158;8.634;2024-01-11T11:57:16;66.22;;;34.83;;
21480;SDS011;10902;48.158;8.634;2024-01-11T12:00:03;64.75;;;34.55;;
21480;SDS011;10902;48.158;8.634;2024-01-11T12:02:51;65.57;;;34.90;;
21480;SDS011;10902;48.158;8.634;2024-01-11T12:05:39;73.15;;;38.47;;
21480;SDS011;10902;48.158;8.634;2024-01-11T12:08:24;75.03;;;37.13;;
21480;SDS011;10902;48.158;8.634;2024-01-11T12:11:12;71.68;;;37.30;;
21480;SDS011;10902;48.158;8.634;2024-01-11T12:13:58;70.68;;;36.33;;
21480;SDS011;10902;48.158;8.634;2024-01-11T12:16:44;77.50;;;38.58;;
21480;SDS011;10902;48.158;8.634;2024-01-11T12:19:30;79.07;;;38.92;;
21480;SDS011;10902;48.158;8.634;2024-01-11T12:22:15;91.85;;;45.20;;
21480;SDS011;10902;48.158;8.634;2024-01-11T12:25:02;86.93;;;42.70;;
21480;SDS011;10902;48.158;8.634;2024-01-11T12:27:48;83.00;;;41.67;;
21480;SDS011;10902;48.158;8.634;2024-01-11T12:30:34;82.80;;;42.10;;
21480;SDS011;10902;48.158;8.634;2024-01-11T12:33:19;85.60;;;42.67;;
21480;SDS011;10902;48.158;8.634;2024-01-11T12:36:07;83.90;;;41.40;;
21480;SDS011;10902;48.158;8.634;2024-01-11T12:38:53;87.93;;;42.33;;
21480;SDS011;10902;48.158;8.634;2024-01-11T12:41:39;86.00;;;43.65;;
21480;SDS011;10902;48.158;8.634;2024-01-11T12:44:25;82.88;;;42.40;;
21480;SDS011;10902;48.158;8.634;2024-01-11T12:47:10;81.15;;;40.40;;
21480;SDS011;10902;48.158;8.634;2024-01-11T12:49:56;78.80;;;39.08;;
21480;SDS011;10902;48.158;8.634;2024-01-11T12:52:42;77.70;;;39.03;;
21480;SDS011;10902;48.158;8.634;2024-01-11T12:55:27;66.28;;;36.28;;
21480;SDS011;10902;48.158;8.634;2024-01-11T12:58:14;68.57;;;36.50;;
21480;SDS011;10902;48.158;8.634;2024-01-11T13:01:05;69.53;;;36.92;;
21480;SDS011;10902;48.158;8.634;2024-01-11T13:03:52;63.55;;;33.97;;
21480;SDS011;10902;48.158;8.634;2024-01-11T13:06:38;63.83;;;34.47;;
21480;SDS011;10902;48.158;8.634;2024-01-11T13:09:24;64.55;;;34.28;;
21480;SDS011;10902;48.158;8.634;2024-01-11T13:12:10;61.17;;;33.75;;
21480;SDS011;10902;48.158;8.634;2024-01-11T13:14:55;54.45;;;30.20;;
21480;SDS011;10902;48.158;8.634;2024-01-11T13:17:41;64.25;;;34.28;;
21480;SDS011;10902;48.158;8.634;2024-01-11T13:20:27;61.08;;;32.50;;
21480;SDS011;10902;48.158;8.634;2024-01-11T13:23:14;60.47;;;33.22;;
21480;SDS011;10902;48.158;8.634;2024-01-11T13:26:01;62.33;;;34.95;;
21480;SDS011;10902;48.158;8.634;2024-01-11T13:28:47;62.75;;;34.38;;
21480;SDS011;10902;48.158;8.634;2024-01-11T13:31:33;62.80;;;34.47;;
21480;SDS011;10902;48.158;8.634;2024-01-11T13:34:18;63.15;;;35.35;;
21480;SDS011;10902;48.158;8.634;2024-01-11T13:37:04;71.05;;;37.13;;
21480;SDS011;10902;48.158;8.634;2024-01-11T13:39:50;59.03;;;33.35;;
21480;SDS011;10902;48.158;8.634;2024-01-11T13:42:37;61.42;;;33.92;;
21480;SDS011;10902;48.158;8.634;2024-01-11T13:45:23;69.20;;;34.03;;
21480;SDS011;10902;48.158;8.634;2024-01-11T13:48:09;61.92;;;34.15;;
21480;SDS011;10902;48.158;8.634;2024-01-11T13:50:55;66.22;;;36.35;;
21480;SDS011;10902;48.158;8.634;2024-01-11T13:53:40;66.88;;;34.92;;
21480;SDS011;10902;48.158;8.634;2024-01-11T13:56:27;64.43;;;34.95;;
21480;SDS011;10902;48.158;8.634;2024-01-11T13:59:12;60.78;;;33.30;;
21480;SDS011;10902;48.158;8.634;2024-01-11T14:01:59;60.92;;;33.50;;
21480;SDS011;10902;48.158;8.634;2024-01-11T14:04:44;61.83;;;33.88;;
21480;SDS011;10902;48.158;8.634;2024-01-11T14:07:30;60.85;;;34.33;;
21480;SDS011;10902;48.158;8.634;2024-01-11T14:10:16;59.75;;;34.30;;
21480;SDS011;10902;48.158;8.634;2024-01-11T14:13:02;61.28;;;35.63;;
21480;SDS011;10902;48.158;8.634;2024-01-11T14:15:48;59.00;;;33.30;;
21480;SDS011;10902;48.158;8.634;2024-01-11T14:18:35;62.65;;;34.55;;
21480;SDS011;10902;48.158;8.634;2024-01-11T14:21:21;59.58;;;35.22;;
21480;SDS011;10902;48.158;8.634;2024-01-11T14:24:07;54.20;;;32.50;;
21480;SDS011;10902;48.158;8.634;2024-01-11T14:26:53;58.33;;;34.30;;
21480;SDS011;10902;48.158;8.634;2024-01-11T14:29:39;59.22;;;34.63;;
21480;SDS011;10902;48.158;8.634;2024-01-11T14:32:24;56.42;;;33.42;;
21480;SDS011;10902;48.158;8.634;2024-01-11T14:35:12;57.38;;;34.15;;
21480;SDS011;10902;48.158;8.634;2024-01-11T14:37:57;57.75;;;34.05;;
21480;SDS011;10902;48.158;8.634;2024-01-11T14:40:43;66.18;;;37.17;;
21480;SDS011;10902;48.158;8.634;2024-01-11T14:43:28;62.75;;;35.72;;
21480;SDS011;10902;48.158;8.634;2024-01-11T14:46:14;62.55;;;36.03;;
21480;SDS011;10902;48.158;8.634;2024-01-11T14:49:00;62.78;;;34.00;;
21480;SDS011;10902;48.158;8.634;2024-01-11T14:51:45;65.18;;;36.75;;
21480;SDS011;10902;48.158;8.634;2024-01-11T14:54:31;60.33;;;35.33;;
21480;SDS011;10902;48.158;8.634;2024-01-11T14:57:16;56.17;;;34.03;;
21480;SDS011;10902;48.158;8.634;2024-01-11T15:00:02;58.97;;;35.55;;
21480;SDS011;10902;48.158;8.634;2024-01-11T15:02:49;55.88;;;33.72;;
21480;SDS011;10902;48.158;8.634;2024-01-11T15:05:35;52.13;;;31.58;;
21480;SDS011;10902;48.158;8.634;2024-01-11T15:08:21;61.47;;;36.28;;
21480;SDS011;10902;48.158;8.634;2024-01-11T15:11:07;55.63;;;34.50;;
21480;SDS011;10902;48.158;8.634;2024-01-11T15:13:53;56.17;;;34.58;;
21480;SDS011;10902;48.158;8.634;2024-01-11T15:16:38;54.28;;;34.28;;
21480;SDS011;10902;48.158;8.634;2024-01-11T15:19:24;51.92;;;32.67;;
21480;SDS011;10902;48.158;8.634;2024-01-11T15:22:10;54.08;;;33.22;;
21480;SDS011;10902;48.158;8.634;2024-01-11T15:24:58;52.53;;;31.25;;
21480;SDS011;10902;48.158;8.634;2024-01-11T15:27:44;57.03;;;32.83;;
21480;SDS011;10902;48.158;8.634;2024-01-11T15:30:30;57.42;;;33.60;;
21480;SDS011;10902;48.158;8.634;2024-01-11T15:33:15;65.88;;;37.38;;
21480;SDS011;10902;48.158;8.634;2024-01-11T15:36:01;62.60;;;36.00;;
21480;SDS011;10902;48.158;8.634;2024-01-11T15:38:47;68.70;;;37.15;;
21480;SDS011;10902;48.158;8.634;2024-01-11T15:41:34;67.47;;;37.28;;
21480;SDS011;10902;48.158;8.634;2024-01-11T15:44:20;66.45;;;37.97;;
21480;SDS011;10902;48.158;8.634;2024-01-11T15:47:05;75.68;;;40.95;;
21480;SDS011;10902;48.158;8.634;2024-01-11T15:49:51;72.78;;;39.70;;
21480;SDS011;10902;48.158;8.634;2024-01-11T15:52:37;76.07;;;39.38;;
21480;SDS011;10902;48.158;8.634;2024-01-11T15:55:23;71.70;;;37.10;;
21480;SDS011;10902;48.158;8.634;2024-01-11T15:58:09;74.10;;;39.30;;
21480;SDS011;10902;48.158;8.634;2024-01-11T16:00:54;78.30;;;40.40;;
21480;SDS011;10902;48.158;8.634;2024-01-11T16:03:40;71.63;;;39.00;;
21480;SDS011;10902;48.158;8.634;2024-01-11T16:06:25;76.30;;;40.28;;
21480;SDS011;10902;48.158;8.634;2024-01-11T16:09:11;81.28;;;41.67;;
21480;SDS011;10902;48.158;8.634;2024-01-11T16:11:56;79.30;;;40.88;;